Time,TemperatureF,DewpointF,PressureIn,WindDirection,WindDirectionDegrees,WindSpeedMPH,WindSpeedGustMPH,Humidity,HourlyPrecipIn,Conditions,Clouds,dailyrainin,SoftwareType,DateUTC
2013-02-25 00:00:00,38.7,3.0,30.58,NE,35,0.0,0.0,22,0.00,,,0.00,Wunderground v.1.15,2013-02-25 08:00:00,
2013-02-25 00:05:00,39.4,3.6,30.58,NNW,328,0.0,6.0,22,0.00,,,0.00,Wunderground v.1.15,2013-02-25 08:05:00,
2013-02-25 00:15:00,40.1,4.2,30.57,West,279,1.0,2.0,22,0.00,,,0.00,Wunderground v.1.15,2013-02-25 08:15:00,
2013-02-25 00:20:00,41.1,4.1,30.58,NW,307,2.0,2.0,21,0.00,,,0.00,Wunderground v.1.15,2013-02-25 08:20:00,
2013-02-25 00:30:00,38.6,3.9,30.58,NE,46,0.0,6.0,23,0.00,,,0.00,Wunderground v.1.15,2013-02-25 08:30:00,
2013-02-25 00:40:00,38.7,4.0,30.58,NE,46,0.0,10.0,23,0.00,,,0.00,Wunderground v.1.15,2013-02-25 08:40:00,
2013-02-25 00:45:00,38.9,3.2,30.58,NE,46,0.0,10.0,22,0.00,,,0.00,Wunderground v.1.15,2013-02-25 08:45:00,
2013-02-25 00:50:00,39.2,3.5,30.58,NE,44,0.0,10.0,22,0.00,,,0.00,Wunderground v.1.15,2013-02-25 08:50:00,
2013-02-25 01:00:00,39.8,4.0,30.58,NE,41,0.0,10.0,22,0.00,,,0.00,Wunderground v.1.15,2013-02-25 09:00:00,
2013-02-25 01:05:00,39.8,4.0,30.58,NE,41,0.0,10.0,22,0.00,,,0.00,Wunderground v.1.15,2013-02-25 09:05:00,
2013-02-25 01:15:00,39.6,3.8,30.58,NE,35,0.0,0.0,22,0.00,,,0.00,Wunderground v.1.15,2013-02-25 09:15:00,
2013-02-25 01:20:00,39.5,3.7,30.58,North,354,0.0,0.0,22,0.00,,,0.00,Wunderground v.1.15,2013-02-25 09:20:00,
2013-02-25 01:25:00,39.6,3.8,30.58,NNW,327,0.0,0.0,22,0.00,,,0.00,Wunderground v.1.15,2013-02-25 09:25:00,
2013-02-25 01:35:00,39.1,4.4,30.58,NNW,327,0.0,3.0,23,0.00,,,0.00,Wunderground v.1.15,2013-02-25 09:35:00,
2013-02-25 01:40:00,38.7,4.9,30.58,NNW,327,0.0,3.0,24,0.00,,,0.00,Wunderground v.1.15,2013-02-25 09:40:00,
2013-02-25 01:50:00,38.2,4.5,30.58,NNW,327,0.0,3.0,24,0.00,,,0.00,Wunderground v.1.15,2013-02-25 09:50:00,
2013-02-25 01:55:00,38.3,4.6,30.58,NW,323,0.0,3.0,24,0.00,,,0.00,Wunderground v.1.15,2013-02-25 09:55:00,
2013-02-25 02:05:00,39.4,5.5,30.58,West,274,1.0,6.0,24,0.00,,,0.00,Wunderground v.1.15,2013-02-25 10:05:00,
2013-02-25 02:10:00,39.8,4.9,30.58,West,275,0.0,6.0,23,0.00,,,0.00,Wunderground v.1.15,2013-02-25 10:10:00,
2013-02-25 02:15:00,40.1,5.2,30.58,West,274,0.0,6.0,23,0.00,,,0.00,Wunderground v.1.15,2013-02-25 10:15:00,
2013-02-25 02:20:00,39.9,5.0,30.59,West,274,0.0,6.0,23,0.00,,,0.00,Wunderground v.1.15,2013-02-25 10:20:00,
2013-02-25 02:30:00,36.4,4.7,30.59,West,274,0.0,6.0,26,0.00,,,0.00,Wunderground v.1.15,2013-02-25 10:30:00,
2013-02-25 02:35:00,35.9,5.1,30.58,West,274,0.0,6.0,27,0.00,,,0.00,Wunderground v.1.15,2013-02-25 10:35:00,
2013-02-25 02:45:00,36.2,5.4,30.58,ENE,75,3.0,4.0,27,0.00,,,0.00,Wunderground v.1.15,2013-02-25 10:45:00,
2013-02-25 02:50:00,36.5,5.6,30.58,ENE,75,3.0,3.0,27,0.00,,,0.00,Wunderground v.1.15,2013-02-25 10:50:00,
2013-02-25 02:55:00,36.4,5.5,30.57,ENE,75,1.0,3.0,27,0.00,,,0.00,Wunderground v.1.15,2013-02-25 10:55:00,
2013-02-25 03:05:00,36.1,5.3,30.57,ENE,75,0.0,6.0,27,0.00,,,0.00,Wunderground v.1.15,2013-02-25 11:05:00,
2013-02-25 03:10:00,36.2,5.4,30.57,ENE,75,0.0,6.0,27,0.00,,,0.00,Wunderground v.1.15,2013-02-25 11:10:00,
2013-02-25 03:15:00,36.6,5.7,30.57,ENE,75,1.0,6.0,27,0.00,,,0.00,Wunderground v.1.15,2013-02-25 11:15:00,
2013-02-25 03:20:00,36.5,5.6,30.57,ENE,75,0.0,6.0,27,0.00,,,0.00,Wunderground v.1.15,2013-02-25 11:20:00,
2013-02-25 03:30:00,36.6,5.7,30.57,ENE,75,1.0,6.0,27,0.00,,,0.00,Wunderground v.1.15,2013-02-25 11:30:00,
2013-02-25 03:35:00,36.4,5.5,30.56,ENE,75,2.0,6.0,27,0.00,,,0.00,Wunderground v.1.15,2013-02-25 11:35:00,
2013-02-25 03:45:00,36.8,5.9,30.56,ENE,75,0.0,6.0,27,0.00,,,0.00,Wunderground v.1.15,2013-02-25 11:45:00,
2013-02-25 03:55:00,36.5,6.4,30.57,ENE,75,0.0,6.0,28,0.00,,,0.00,Wunderground v.1.15,2013-02-25 11:55:00,
2013-02-25 04:00:00,36.3,6.3,30.56,ENE,75,0.0,6.0,28,0.00,,,0.00,Wunderground v.1.15,2013-02-25 12:00:00,
2013-02-25 04:05:00,35.5,6.3,30.57,ENE,75,0.0,6.0,29,0.00,,,0.00,Wunderground v.1.15,2013-02-25 12:05:00,
2013-02-25 04:15:00,35.8,6.6,30.57,ENE,75,0.0,4.0,29,0.00,,,0.00,Wunderground v.1.15,2013-02-25 12:15:00,
2013-02-25 04:20:00,36.3,6.3,30.57,ENE,75,0.0,4.0,28,0.00,,,0.00,Wunderground v.1.15,2013-02-25 12:20:00,
2013-02-25 04:30:00,36.1,6.1,30.58,ENE,75,0.0,4.0,28,0.00,,,0.00,Wunderground v.1.15,2013-02-25 12:30:00,
2013-02-25 04:35:00,35.6,6.4,30.58,ENE,75,0.0,4.0,29,0.00,,,0.00,Wunderground v.1.15,2013-02-25 12:35:00,
2013-02-25 04:40:00,35.2,6.8,30.58,ENE,75,0.0,2.0,30,0.00,,,0.00,Wunderground v.1.15,2013-02-25 12:40:00,
2013-02-25 04:55:00,35.5,6.3,30.58,ENE,75,1.0,2.0,29,0.00,,,0.00,Wunderground v.1.15,2013-02-25 12:55:00,
2013-02-25 05:00:00,34.9,6.6,30.58,ENE,75,0.0,2.0,30,0.00,,,0.00,Wunderground v.1.15,2013-02-25 13:00:00,
2013-02-25 05:10:00,35.6,6.4,30.58,ENE,75,1.0,1.0,29,0.00,,,0.00,Wunderground v.1.15,2013-02-25 13:10:00,
2013-02-25 05:20:00,36.3,6.3,30.58,ENE,75,0.0,4.0,28,0.00,,,0.00,Wunderground v.1.15,2013-02-25 13:20:00,
2013-02-25 05:30:00,36.7,6.6,30.58,ENE,75,0.0,4.0,28,0.00,,,0.00,Wunderground v.1.15,2013-02-25 13:30:00,
2013-02-25 05:35:00,36.4,6.3,30.58,ENE,75,0.0,4.0,28,0.00,,,0.00,Wunderground v.1.15,2013-02-25 13:35:00,
2013-02-25 05:45:00,36.2,6.2,30.59,ENE,75,0.0,4.0,28,0.00,,,0.00,Wunderground v.1.15,2013-02-25 13:45:00,
2013-02-25 05:50:00,35.6,6.4,30.59,ENE,75,0.0,4.0,29,0.00,,,0.00,Wunderground v.1.15,2013-02-25 13:50:00,
2013-02-25 06:00:00,35.7,6.5,30.58,ENE,75,0.0,4.0,29,0.00,,,0.00,Wunderground v.1.15,2013-02-25 14:00:00,
2013-02-25 06:05:00,35.5,6.3,30.58,ENE,75,0.0,4.0,29,0.00,,,0.00,Wunderground v.1.15,2013-02-25 14:05:00,
2013-02-25 06:15:00,35.4,6.2,30.58,ENE,75,0.0,3.0,29,0.00,,,0.00,Wunderground v.1.15,2013-02-25 14:15:00,
2013-02-25 06:20:00,35.5,6.3,30.59,ENE,75,0.0,3.0,29,0.00,,,0.00,Wunderground v.1.15,2013-02-25 14:20:00,
2013-02-25 06:25:00,35.0,6.6,30.59,ENE,75,0.0,3.0,30,0.00,,,0.00,Wunderground v.1.15,2013-02-25 14:25:00,
2013-02-25 06:35:00,35.1,6.7,30.59,ENE,75,0.0,4.0,30,0.00,,,0.00,Wunderground v.1.15,2013-02-25 14:35:00,
2013-02-25 06:40:00,35.6,7.2,30.58,ENE,75,0.0,4.0,30,0.00,,,0.00,Wunderground v.1.15,2013-02-25 14:40:00,
2013-02-25 06:45:00,36.5,7.2,30.58,ENE,75,0.0,4.0,29,0.00,,,0.00,Wunderground v.1.15,2013-02-25 14:45:00,
2013-02-25 06:55:00,37.7,6.7,30.59,ENE,75,0.0,4.0,27,0.00,,,0.00,Wunderground v.1.15,2013-02-25 14:55:00,
2013-02-25 07:00:00,38.7,7.5,30.59,ENE,75,0.0,4.0,27,0.00,,,0.00,Wunderground v.1.15,2013-02-25 15:00:00,
2013-02-25 07:05:00,39.4,7.3,30.59,ENE,75,0.0,4.0,26,0.00,,,0.00,Wunderground v.1.15,2013-02-25 15:05:00,
2013-02-25 07:15:00,40.6,7.5,30.59,ENE,75,0.0,0.0,25,0.00,,,0.00,Wunderground v.1.15,2013-02-25 15:15:00,
2013-02-25 07:20:00,40.9,7.7,30.59,ENE,75,0.0,0.0,25,0.00,,,0.00,Wunderground v.1.15,2013-02-25 15:20:00,
2013-02-25 07:30:00,41.4,8.1,30.59,ENE,75,0.0,0.0,25,0.00,,,0.00,Wunderground v.1.15,2013-02-25 15:30:00,
2013-02-25 07:35:00,42.0,7.8,30.59,ENE,75,0.0,0.0,24,0.00,,,0.00,Wunderground v.1.15,2013-02-25 15:35:00,
2013-02-25 07:40:00,42.7,7.4,30.59,ENE,75,0.0,0.0,23,0.00,,,0.00,Wunderground v.1.15,2013-02-25 15:40:00,
2013-02-25 07:45:00,43.0,7.7,30.59,NNE,30,0.0,0.0,23,0.00,,,0.00,Wunderground v.1.15,2013-02-25 15:45:00,
2013-02-25 07:55:00,43.1,7.7,30.59,NNW,333,2.0,5.0,23,0.00,,,0.00,Wunderground v.1.15,2013-02-25 15:55:00,
2013-02-25 08:00:00,42.9,7.6,30.59,NW,324,2.0,2.0,23,0.00,,,0.00,Wunderground v.1.15,2013-02-25 16:00:00,
2013-02-25 08:05:00,42.9,7.6,30.59,NW,324,1.0,3.0,23,0.00,,,0.00,Wunderground v.1.15,2013-02-25 16:05:00,
2013-02-25 08:15:00,43.1,7.7,30.59,NW,324,2.0,6.0,23,0.00,,,0.00,Wunderground v.1.15,2013-02-25 16:15:00,
2013-02-25 08:20:00,43.3,7.9,30.59,NNW,333,4.0,7.0,23,0.00,,,0.00,Wunderground v.1.15,2013-02-25 16:20:00,
2013-02-25 08:25:00,43.7,8.3,30.58,North,349,5.0,7.0,23,0.00,,,0.00,Wunderground v.1.15,2013-02-25 16:25:00,
2013-02-25 08:35:00,44.1,7.6,30.58,NNW,335,6.0,8.0,22,0.00,,,0.00,Wunderground v.1.15,2013-02-25 16:35:00,
2013-02-25 08:40:00,44.3,7.8,30.59,NNW,333,6.0,12.0,22,0.00,,,0.00,Wunderground v.1.15,2013-02-25 16:40:00,
2013-02-25 08:50:00,45.0,8.4,30.59,North,352,5.0,12.0,22,0.00,,,0.00,Wunderground v.1.15,2013-02-25 16:50:00,
2013-02-25 09:00:00,45.6,7.8,30.58,NNW,348,4.0,4.0,21,0.00,,,0.00,Wunderground v.1.15,2013-02-25 17:00:00,
2013-02-25 09:05:00,45.6,7.8,30.58,NNW,348,3.0,11.0,21,0.00,,,0.00,Wunderground v.1.15,2013-02-25 17:05:00,
2013-02-25 09:15:00,46.0,7.1,30.58,NNW,346,2.0,4.0,20,0.00,,,0.00,Wunderground v.1.15,2013-02-25 17:15:00,
2013-02-25 09:20:00,46.0,4.8,30.58,North,354,2.0,2.0,18,0.00,,,0.00,Wunderground v.1.15,2013-02-25 17:20:00,
2013-02-25 09:25:00,45.9,5.9,30.58,NW,310,2.0,11.0,19,0.00,,,0.00,Wunderground v.1.15,2013-02-25 17:25:00,
2013-02-25 09:30:00,46.4,6.3,30.58,NW,304,2.0,11.0,19,0.00,,,0.00,Wunderground v.1.15,2013-02-25 17:30:00,
2013-02-25 09:35:00,46.0,6.0,30.58,NNW,327,3.0,11.0,19,0.00,,,0.00,Wunderground v.1.15,2013-02-25 17:35:00,
2013-02-25 09:45:00,45.9,5.9,30.57,NW,312,4.0,9.0,19,0.00,,,0.00,Wunderground v.1.15,2013-02-25 17:45:00,
2013-02-25 09:50:00,46.3,6.2,30.57,WNW,295,5.0,5.0,19,0.00,,,0.00,Wunderground v.1.15,2013-02-25 17:50:00,
2013-02-25 10:00:00,46.6,6.5,30.57,NW,324,4.0,4.0,19,0.00,,,0.00,Wunderground v.1.15,2013-02-25 18:00:00,
2013-02-25 10:05:00,46.7,5.4,30.57,NNW,327,4.0,9.0,18,0.00,,,0.00,Wunderground v.1.15,2013-02-25 18:05:00,
2013-02-25 10:10:00,46.8,6.6,30.57,NNW,336,5.0,5.0,19,0.00,,,0.00,Wunderground v.1.15,2013-02-25 18:10:00,
2013-02-25 10:15:00,47.0,5.6,30.56,NW,312,4.0,10.0,18,0.00,,,0.00,Wunderground v.1.15,2013-02-25 18:15:00,
2013-02-25 10:25:00,47.4,5.9,30.56,North,2,3.0,10.0,18,0.00,,,0.00,Wunderground v.1.15,2013-02-25 18:25:00,
2013-02-25 10:30:00,47.8,6.3,30.56,North,4,3.0,3.0,18,0.00,,,0.00,Wunderground v.1.15,2013-02-25 18:30:00,
2013-02-25 10:35:00,48.0,5.2,30.56,North,10,2.0,11.0,17,0.00,,,0.00,Wunderground v.1.15,2013-02-25 18:35:00,
2013-02-25 10:45:00,47.9,5.1,30.56,NW,314,3.0,11.0,17,0.00,,,0.00,Wunderground v.1.15,2013-02-25 18:45:00,
2013-02-25 10:50:00,48.5,6.8,30.56,NW,314,1.0,1.0,18,0.00,,,0.00,Wunderground v.1.15,2013-02-25 18:50:00,
2013-02-25 11:00:00,48.5,5.6,30.56,NW,307,2.0,11.0,17,0.00,,,0.00,Wunderground v.1.15,2013-02-25 19:00:00,
2013-02-25 11:05:00,48.5,5.6,30.56,NW,306,2.0,11.0,17,0.00,,,0.00,Wunderground v.1.15,2013-02-25 19:05:00,
2013-02-25 11:15:00,49.1,4.8,30.55,NW,304,1.0,9.0,16,0.00,,,0.00,Wunderground v.1.15,2013-02-25 19:15:00,
2013-02-25 11:20:00,49.4,5.0,30.55,NNW,333,2.0,2.0,16,0.00,,,0.00,Wunderground v.1.15,2013-02-25 19:20:00,
2013-02-25 11:30:00,49.9,5.4,30.54,NW,311,0.0,9.0,16,0.00,,,0.00,Wunderground v.1.15,2013-02-25 19:30:00,
2013-02-25 11:35:00,49.9,5.4,30.54,NW,315,2.0,9.0,16,0.00,,,0.00,Wunderground v.1.15,2013-02-25 19:35:00,
2013-02-25 11:45:00,49.8,3.9,30.54,NW,318,1.0,7.0,15,0.00,,,0.00,Wunderground v.1.15,2013-02-25 19:45:00,
2013-02-25 11:50:00,50.2,2.7,30.53,NW,316,1.0,7.0,14,0.00,,,0.00,Wunderground v.1.15,2013-02-25 19:50:00,
2013-02-25 11:55:00,50.2,2.7,30.53,NW,316,1.0,7.0,14,0.00,,,0.00,Wunderground v.1.15,2013-02-25 19:55:00,
2013-02-25 12:05:00,51.0,3.4,30.52,NNW,345,0.0,9.0,14,0.00,,,0.00,Wunderground v.1.15,2013-02-25 20:05:00,
2013-02-25 12:10:00,51.2,3.5,30.52,NW,321,1.0,1.0,14,0.00,,,0.00,Wunderground v.1.15,2013-02-25 20:10:00,
2013-02-25 12:20:00,51.3,2.0,30.51,NW,314,2.0,9.0,13,0.00,,,0.00,Wunderground v.1.15,2013-02-25 20:20:00,
2013-02-25 12:30:00,51.7,3.9,30.51,NNW,341,2.0,9.0,14,0.00,,,0.00,Wunderground v.1.15,2013-02-25 20:30:00,
2013-02-25 12:35:00,51.8,4.0,30.51,WNW,296,2.0,9.0,14,0.00,,,0.00,Wunderground v.1.15,2013-02-25 20:35:00,
2013-02-25 12:45:00,52.4,4.5,30.50,WNW,286,2.0,8.0,14,0.00,,,0.00,Wunderground v.1.15,2013-02-25 20:45:00,
2013-02-25 12:50:00,52.7,4.7,30.50,WNW,283,2.0,8.0,14,0.00,,,0.00,Wunderground v.1.15,2013-02-25 20:50:00,
2013-02-25 12:55:00,52.9,3.3,30.50,WNW,285,3.0,8.0,13,0.00,,,0.00,Wunderground v.1.15,2013-02-25 20:55:00,
2013-02-25 13:00:00,53.1,3.5,30.50,WNW,283,2.0,2.0,13,0.00,,,0.00,Wunderground v.1.15,2013-02-25 21:00:00,
2013-02-25 13:10:00,53.6,5.5,30.49,NNW,334,1.0,10.0,14,0.00,,,0.00,Wunderground v.1.15,2013-02-25 21:10:00,
2013-02-25 13:15:00,53.7,5.5,30.49,North,354,2.0,10.0,14,0.00,,,0.00,Wunderground v.1.15,2013-02-25 21:15:00,
2013-02-25 13:20:00,53.2,5.1,30.49,NNE,16,3.0,3.0,14,0.00,,,0.00,Wunderground v.1.15,2013-02-25 21:20:00,
2013-02-25 13:30:00,53.9,4.1,30.48,NNW,342,1.0,1.0,13,0.00,,,0.00,Wunderground v.1.15,2013-02-25 21:30:00,
2013-02-25 13:35:00,54.5,4.6,30.48,NW,306,1.0,10.0,13,0.00,,,0.00,Wunderground v.1.15,2013-02-25 21:35:00,
2013-02-25 13:45:00,54.5,4.6,30.47,WNW,296,3.0,9.0,13,0.00,,,0.00,Wunderground v.1.15,2013-02-25 21:45:00,
2013-02-25 13:55:00,54.8,4.8,30.47,WNW,282,2.0,4.0,13,0.00,,,0.00,Wunderground v.1.15,2013-02-25 21:55:00,
2013-02-25 14:00:00,54.9,4.9,30.47,West,281,1.0,1.0,13,0.00,,,0.00,Wunderground v.1.15,2013-02-25 22:00:00,
2013-02-25 14:10:00,56.0,5.8,30.47,SSW,192,2.0,2.0,13,0.00,,,0.00,Wunderground v.1.15,2013-02-25 22:10:00,
2013-02-25 14:20:00,56.4,6.1,30.46,SE,140,3.0,3.0,13,0.00,,,0.00,Wunderground v.1.15,2013-02-25 22:20:00,
2013-02-25 14:30:00,56.4,7.7,30.46,SE,136,3.0,10.0,14,0.00,,,0.00,Wunderground v.1.15,2013-02-25 22:30:00,
2013-02-25 14:35:00,56.5,7.8,30.46,SE,144,3.0,17.0,14,0.00,,,0.00,Wunderground v.1.15,2013-02-25 22:35:00,
2013-02-25 14:40:00,56.3,7.6,30.46,SSW,199,5.0,5.0,14,0.00,,,0.00,Wunderground v.1.15,2013-02-25 22:40:00,
2013-02-25 14:50:00,56.3,9.2,30.46,SE,129,4.0,4.0,15,0.00,,,0.00,Wunderground v.1.15,2013-02-25 22:50:00,
2013-02-25 15:00:00,56.2,7.5,30.46,South,171,5.0,5.0,14,0.00,,,0.00,Wunderground v.1.15,2013-02-25 23:00:00,
2013-02-25 15:10:00,56.5,7.8,30.45,ESE,121,3.0,10.0,14,0.00,,,0.00,Wunderground v.1.15,2013-02-25 23:10:00,
2013-02-25 15:15:00,56.3,7.6,30.45,SSE,148,4.0,10.0,14,0.00,,,0.00,Wunderground v.1.15,2013-02-25 23:15:00,
2013-02-25 15:20:00,55.9,7.3,30.45,SE,140,4.0,10.0,14,0.00,,,0.00,Wunderground v.1.15,2013-02-25 23:20:00,
2013-02-25 15:30:00,55.7,7.1,30.44,SE,140,5.0,10.0,14,0.00,,,0.00,Wunderground v.1.15,2013-02-25 23:30:00,
2013-02-25 15:35:00,55.9,7.3,30.44,SE,133,5.0,12.0,14,0.00,,,0.00,Wunderground v.1.15,2013-02-25 23:35:00,
2013-02-25 15:45:00,55.9,7.3,30.44,SSE,161,5.0,12.0,14,0.00,,,0.00,Wunderground v.1.15,2013-02-25 23:45:00,
2013-02-25 15:50:00,55.5,8.5,30.43,SSE,150,6.0,6.0,15,0.00,,,0.00,Wunderground v.1.15,2013-02-25 23:50:00,
2013-02-25 16:00:00,55.2,8.3,30.43,SE,143,6.0,6.0,15,0.00,,,0.00,Wunderground v.1.15,2013-02-26 00:00:00,
2013-02-25 16:10:00,54.9,8.0,30.42,SSE,158,6.0,6.0,15,0.00,,,0.00,Wunderground v.1.15,2013-02-26 00:10:00,
2013-02-25 16:15:00,55.0,9.6,30.42,SSE,168,6.0,8.0,16,0.00,,,0.00,Wunderground v.1.15,2013-02-26 00:15:00,
2013-02-25 16:20:00,55.0,9.6,30.41,SSE,150,5.0,14.0,16,0.00,,,0.00,Wunderground v.1.15,2013-02-26 00:20:00,
2013-02-25 16:30:00,54.7,9.3,30.41,SSE,152,6.0,14.0,16,0.00,,,0.00,Wunderground v.1.15,2013-02-26 00:30:00,
2013-02-25 16:35:00,54.4,9.1,30.41,SE,146,6.0,14.0,16,0.00,,,0.00,Wunderground v.1.15,2013-02-26 00:35:00,
2013-02-25 16:40:00,54.4,9.1,30.41,SE,135,6.0,6.0,16,0.00,,,0.00,Wunderground v.1.15,2013-02-26 00:40:00,
2013-02-25 16:50:00,53.8,9.9,30.41,SSE,166,6.0,6.0,17,0.00,,,0.00,Wunderground v.1.15,2013-02-26 00:50:00,
2013-02-25 17:00:00,53.5,9.7,30.41,South,169,4.0,13.0,17,0.00,,,0.00,Wunderground v.1.15,2013-02-26 01:00:00,
2013-02-25 17:05:00,53.0,9.3,30.40,SE,143,6.0,13.0,17,0.00,,,0.00,Wunderground v.1.15,2013-02-26 01:05:00,
2013-02-25 17:15:00,52.4,8.8,30.40,SSE,154,6.0,8.0,17,0.00,,,0.00,Wunderground v.1.15,2013-02-26 01:15:00,
2013-02-25 17:20:00,52.2,8.6,30.40,SSE,158,6.0,13.0,17,0.00,,,0.00,Wunderground v.1.15,2013-02-26 01:20:00,
2013-02-25 17:25:00,52.0,9.7,30.40,SSE,167,5.0,13.0,18,0.00,,,0.00,Wunderground v.1.15,2013-02-26 01:25:00,
2013-02-25 17:30:00,51.6,9.4,30.40,SSW,202,4.0,13.0,18,0.00,,,0.00,Wunderground v.1.15,2013-02-26 01:30:00,
2013-02-25 17:35:00,51.3,9.2,30.40,SSW,212,3.0,13.0,18,0.00,,,0.00,Wunderground v.1.15,2013-02-26 01:35:00,
2013-02-25 17:45:00,50.9,8.8,30.39,SSW,206,1.0,12.0,18,0.00,,,0.00,Wunderground v.1.15,2013-02-26 01:45:00,
2013-02-25 17:50:00,50.6,9.8,30.40,SSW,206,0.0,12.0,19,0.00,,,0.00,Wunderground v.1.15,2013-02-26 01:50:00,
2013-02-25 18:00:00,49.9,9.2,30.39,SSW,206,0.0,12.0,19,0.00,,,0.00,Wunderground v.1.15,2013-02-26 02:00:00,
2013-02-25 18:05:00,49.6,9.0,30.39,SSW,210,1.0,12.0,19,0.00,,,0.00,Wunderground v.1.15,2013-02-26 02:05:00,
2013-02-25 18:15:00,49.2,9.8,30.39,SSW,212,1.0,5.0,20,0.00,,,0.00,Wunderground v.1.15,2013-02-26 02:15:00,
2013-02-25 18:20:00,49.0,9.6,30.39,SW,223,1.0,5.0,20,0.00,,,0.00,Wunderground v.1.15,2013-02-26 02:20:00,
2013-02-25 18:30:00,49.1,9.7,30.39,SSW,206,2.0,5.0,20,0.00,,,0.00,Wunderground v.1.15,2013-02-26 02:30:00,
2013-02-25 18:35:00,49.2,10.9,30.39,SSW,200,2.0,7.0,21,0.00,,,0.00,Wunderground v.1.15,2013-02-26 02:35:00,
2013-02-25 18:45:00,49.3,10.9,30.39,WSW,244,1.0,4.0,21,0.00,,,0.00,Wunderground v.1.15,2013-02-26 02:45:00,
2013-02-25 18:50:00,49.3,10.9,30.39,WSW,244,2.0,7.0,21,0.00,,,0.00,Wunderground v.1.15,2013-02-26 02:50:00,
2013-02-25 19:00:00,49.2,10.9,30.39,SSW,202,2.0,7.0,21,0.00,,,0.00,Wunderground v.1.15,2013-02-26 03:00:00,
2013-02-25 19:10:00,48.9,11.7,30.38,SSW,198,2.0,8.0,22,0.00,,,0.00,Wunderground v.1.15,2013-02-26 03:10:00,
2013-02-25 19:15:00,48.7,11.5,30.38,SSW,200,2.0,8.0,22,0.00,,,0.00,Wunderground v.1.15,2013-02-26 03:15:00,
2013-02-25 19:20:00,48.5,11.3,30.38,SSW,200,2.0,8.0,22,0.00,,,0.00,Wunderground v.1.15,2013-02-26 03:20:00,
2013-02-25 19:30:00,48.5,11.3,30.39,SW,221,3.0,3.0,22,0.00,,,0.00,Wunderground v.1.15,2013-02-26 03:30:00,
2013-02-25 19:35:00,48.0,10.9,30.39,SW,224,2.0,7.0,22,0.00,,,0.00,Wunderground v.1.15,2013-02-26 03:35:00,
2013-02-25 19:45:00,47.5,11.5,30.39,South,172,1.0,3.0,23,0.00,,,0.00,Wunderground v.1.15,2013-02-26 03:45:00,
2013-02-25 19:50:00,48.3,11.2,30.39,SSE,163,3.0,7.0,22,0.00,,,0.00,Wunderground v.1.15,2013-02-26 03:50:00,
2013-02-25 19:55:00,48.8,11.6,30.39,SSE,167,7.0,8.0,22,0.00,,,0.00,Wunderground v.1.15,2013-02-26 03:55:00,
2013-02-25 20:00:00,48.7,11.5,30.39,SSE,148,7.0,7.0,22,0.00,,,0.00,Wunderground v.1.15,2013-02-26 04:00:00,
2013-02-25 20:10:00,48.1,11.0,30.39,SSE,160,3.0,18.0,22,0.00,,,0.00,Wunderground v.1.15,2013-02-26 04:10:00,
2013-02-25 20:15:00,47.9,11.8,30.39,South,187,3.0,18.0,23,0.00,,,0.00,Wunderground v.1.15,2013-02-26 04:15:00,
2013-02-25 20:20:00,47.5,11.5,30.38,South,187,1.0,1.0,23,0.00,,,0.00,Wunderground v.1.15,2013-02-26 04:20:00,
2013-02-25 20:30:00,47.6,12.5,30.39,South,187,0.0,18.0,24,0.00,,,0.00,Wunderground v.1.15,2013-02-26 04:30:00,
2013-02-25 20:35:00,47.0,12.0,30.39,South,187,0.0,18.0,24,0.00,,,0.00,Wunderground v.1.15,2013-02-26 04:35:00,
2013-02-25 20:45:00,45.6,12.6,30.38,NNE,27,1.0,11.0,26,0.00,,,0.00,Wunderground v.1.15,2013-02-26 04:45:00,
2013-02-25 20:50:00,45.5,12.5,30.39,NNE,31,1.0,1.0,26,0.00,,,0.00,Wunderground v.1.15,2013-02-26 04:50:00,
2013-02-25 20:55:00,45.5,12.5,30.39,NNE,31,0.0,11.0,26,0.00,,,0.00,Wunderground v.1.15,2013-02-26 04:55:00,
2013-02-25 21:00:00,45.9,12.9,30.39,NE,38,0.0,11.0,26,0.00,,,0.00,Wunderground v.1.15,2013-02-26 05:00:00,
2013-02-25 21:05:00,46.1,13.1,30.39,NE,46,1.0,11.0,26,0.00,,,0.00,Wunderground v.1.15,2013-02-26 05:05:00,
2013-02-25 21:10:00,46.0,13.0,30.39,NE,46,1.0,4.0,26,0.00,,,0.00,Wunderground v.1.15,2013-02-26 05:10:00,
2013-02-25 21:15:00,46.1,13.1,30.39,NE,46,1.0,4.0,26,0.00,,,0.00,Wunderground v.1.15,2013-02-26 05:15:00,
2013-02-25 21:20:00,45.8,12.8,30.38,NE,46,1.0,1.0,26,0.00,,,0.00,Wunderground v.1.15,2013-02-26 05:20:00,
2013-02-25 21:30:00,45.3,13.2,30.38,ENE,59,0.0,4.0,27,0.00,,,0.00,Wunderground v.1.15,2013-02-26 05:30:00,
2013-02-25 21:35:00,45.2,13.1,30.39,ENE,67,1.0,4.0,27,0.00,,,0.00,Wunderground v.1.15,2013-02-26 05:35:00,
2013-02-25 21:45:00,45.1,13.1,30.38,ENE,67,0.0,4.0,27,0.00,,,0.00,Wunderground v.1.15,2013-02-26 05:45:00,
2013-02-25 21:55:00,44.6,13.5,30.38,ENE,67,0.0,4.0,28,0.00,,,0.00,Wunderground v.1.15,2013-02-26 05:55:00,
2013-02-25 22:00:00,43.6,13.4,30.38,ENE,67,0.0,4.0,29,0.00,,,0.00,Wunderground v.1.15,2013-02-26 06:00:00,
2013-02-25 22:05:00,43.3,13.1,30.38,ENE,67,0.0,4.0,29,0.00,,,0.00,Wunderground v.1.15,2013-02-26 06:05:00,
2013-02-25 22:15:00,44.1,13.0,30.38,ENE,67,0.0,0.0,28,0.00,,,0.00,Wunderground v.1.15,2013-02-26 06:15:00,
2013-02-25 22:20:00,44.0,12.9,30.38,ENE,67,0.0,0.0,28,0.00,,,0.00,Wunderground v.1.15,2013-02-26 06:20:00,
2013-02-25 22:30:00,43.6,13.4,30.38,ENE,67,0.0,0.0,29,0.00,,,0.00,Wunderground v.1.15,2013-02-26 06:30:00,
2013-02-25 22:35:00,43.7,13.5,30.39,ENE,67,0.0,0.0,29,0.00,,,0.00,Wunderground v.1.15,2013-02-26 06:35:00,
2013-02-25 22:40:00,43.6,13.4,30.38,ENE,67,0.0,0.0,29,0.00,,,0.00,Wunderground v.1.15,2013-02-26 06:40:00,
2013-02-25 22:50:00,44.6,13.5,30.38,NE,54,1.0,1.0,28,0.00,,,0.00,Wunderground v.1.15,2013-02-26 06:50:00,
2013-02-25 23:00:00,44.9,13.7,30.38,NE,54,1.0,1.0,28,0.00,,,0.00,Wunderground v.1.15,2013-02-26 07:00:00,
2013-02-25 23:05:00,44.6,13.5,30.38,NE,54,0.0,5.0,28,0.00,,,0.00,Wunderground v.1.15,2013-02-26 07:05:00,
2013-02-25 23:15:00,44.3,14.0,30.38,NE,54,0.0,5.0,29,0.00,,,0.00,Wunderground v.1.15,2013-02-26 07:15:00,
2013-02-25 23:20:00,44.5,14.2,30.38,NE,54,0.0,5.0,29,0.00,,,0.00,Wunderground v.1.15,2013-02-26 07:20:00,
2013-02-25 23:30:00,44.5,13.4,30.38,NE,54,0.0,5.0,28,0.00,,,0.00,Wunderground v.1.15,2013-02-26 07:30:00,
2013-02-25 23:35:00,44.3,14.0,30.38,NE,54,0.0,5.0,29,0.00,,,0.00,Wunderground v.1.15,2013-02-26 07:35:00,
2013-02-25 23:40:00,44.1,13.8,30.38,NE,54,0.0,0.0,29,0.00,,,0.00,Wunderground v.1.15,2013-02-26 07:40:00,
2013-02-25 23:45:00,43.6,13.4,30.37,NE,54,0.0,0.0,29,0.00,,,0.00,Wunderground v.1.15,2013-02-26 07:45:00,
2013-02-25 23:50:00,43.5,14.1,30.37,NE,54,0.0,0.0,30,0.00,,,0.00,Wunderground v.1.15,2013-02-26 07:50:00,